CheckWX is a tool to help pilots better visualize weather data.  It is not intended as a substitute for an official pre-flight weather briefing.

04:39:30 UTC

KRST TAF
Rochester International Airport
Rochester, Minnesota, USA
KRST 222330Z 2300/2324 02005KT P6SM SKC FM231400 18006KT P6SM SKC

Mar-23@
00:00 UTC

Mar-23 @ 00:00 UTC

Mar-23@
14:00 UTC

Mar-23 @ 14:00 UTC

KRST 222330Z 2300/2324 02005KT P6SM SKC
Wind
  • 020° at 5 KTS
Cloud Levels
  • Clear skies

Mar-23@
14:00 UTC

Mar-23 @ 14:00 UTC

Mar-24@
00:00 UTC

Mar-24 @ 00:00 UTC

FM231400 18006KT P6SM SKC

From

From Standard forecast or significant change

Wind
  • 180° at 6 KTS
Cloud Levels
  • Clear skies